createdAt,value
2019-04-25T00:02:34.326Z,19.95
2019-04-25T00:06:41.124Z,19.55
2019-04-25T00:10:47.647Z,32.55
2019-04-25T00:14:53.441Z,24.37
2019-04-25T00:18:59.558Z,22.77
2019-04-25T00:23:16.674Z,18.60
2019-04-25T00:27:23.765Z,17.95
2019-04-25T00:31:29.592Z,17.07
2019-04-25T00:35:35.345Z,17.60
2019-04-25T00:39:43.515Z,20.10
2019-04-25T00:43:48.307Z,20.50
2019-04-25T00:47:55.244Z,30.12
2019-04-25T00:52:01.956Z,13.90
2019-04-25T00:56:07.814Z,13.22
2019-04-25T01:00:44.925Z,15.97
2019-04-25T01:04:52.053Z,12.28
2019-04-25T01:08:58.193Z,20.32
2019-04-25T01:13:03.927Z,16.17
2019-04-25T01:17:11.445Z,14.65
2019-04-25T01:21:17.120Z,21.15
2019-04-25T01:25:23.422Z,12.63
2019-04-25T01:29:29.015Z,16.42
2019-04-25T01:33:34.819Z,13.10
2019-04-25T01:37:51.138Z,12.65
2019-04-25T01:42:14.745Z,12.95
2019-04-25T01:46:20.724Z,11.33
2019-04-25T01:50:26.644Z,14.43
2019-04-25T01:54:33.835Z,12.93
2019-04-25T01:58:41.252Z,15.25
2019-04-25T02:02:47.034Z,13.28
2019-04-25T02:06:54.358Z,8.48
2019-04-25T02:11:14.269Z,12.93
2019-04-25T02:15:23.454Z,22.42
2019-04-25T02:19:29.122Z,11.12
2019-04-25T02:23:34.791Z,12.43
2019-04-25T02:27:40.868Z,12.82
2019-04-25T02:31:46.773Z,13.43
2019-04-25T02:35:54.338Z,11.18
2019-04-25T02:40:01.444Z,18.62
2019-04-25T02:44:10.122Z,18.20
2019-04-25T02:48:40.645Z,10.55
2019-04-25T02:53:10.700Z,11.17
2019-04-25T02:57:16.389Z,9.70
2019-04-25T03:01:25.324Z,13.58
2019-04-25T03:05:29.370Z,9.85
2019-04-25T03:09:35.342Z,10.68
2019-04-25T03:13:44.130Z,14.53
2019-04-25T03:17:50.082Z,10.08
2019-04-25T03:21:58.632Z,9.78
2019-04-25T03:26:05.825Z,9.78
2019-04-25T03:30:14.932Z,10.50
2019-04-25T03:34:25.078Z,10.43
2019-04-25T03:38:28.130Z,10.48
2019-04-25T03:42:34.082Z,12.45
2019-04-25T03:46:39.857Z,9.88
2019-04-25T03:50:46.114Z,11.33
2019-04-25T03:54:53.338Z,11.05
2019-04-25T03:58:59.180Z,8.50
2019-04-25T04:03:06.749Z,10.18
2019-04-25T04:07:14.733Z,10.72
2019-04-25T04:11:20.468Z,7.87
2019-04-25T04:15:26.282Z,11.43
2019-04-25T04:19:34.061Z,9.40
2019-04-25T04:23:54.995Z,11.35
2019-04-25T04:28:01.600Z,8.43
2019-04-25T04:32:10.841Z,7.65
2019-04-25T04:36:19.011Z,8.85
2019-04-25T04:40:24.838Z,10.27
2019-04-25T04:44:30.463Z,9.30
2019-04-25T04:48:36.615Z,9.55
2019-04-25T04:52:43.907Z,7.47
2019-04-25T04:56:49.639Z,10.95
2019-04-25T05:00:55.198Z,9.78
2019-04-25T05:05:30.546Z,9.73
2019-04-25T05:09:36.331Z,9.58
2019-04-25T05:13:42.028Z,9.78
2019-04-25T05:17:48.679Z,9.10
2019-04-25T05:21:54.345Z,6.65
2019-04-25T05:26:00.096Z,7.28
2019-04-25T05:30:07.339Z,14.95
2019-04-25T05:34:14.517Z,17.20
2019-04-25T05:38:20.235Z,18.45
2019-04-25T05:42:44.313Z,16.50
2019-04-25T05:46:51.135Z,19.45
2019-04-25T05:50:56.758Z,19.07
2019-04-25T05:55:03.849Z,13.15
2019-04-25T05:59:09.678Z,21.10
2019-04-25T06:03:15.346Z,16.50
2019-04-25T06:07:21.487Z,17.07
2019-04-25T06:11:46.255Z,20.43
2019-04-25T06:15:53.575Z,14.78
2019-04-25T06:20:00.315Z,9.00
2019-04-25T06:24:20.486Z,23.60
2019-04-25T06:28:28.280Z,30.82
2019-04-25T06:32:35.491Z,24.47
2019-04-25T06:36:41.258Z,20.15
2019-04-25T06:40:47.467Z,27.00
2019-04-25T06:45:25.231Z,16.75
2019-04-25T06:49:36.412Z,24.25
2019-04-25T06:53:40.074Z,22.32
2019-04-25T06:57:45.717Z,34.03
2019-04-25T07:01:54.083Z,29.05
2019-04-25T07:05:59.670Z,23.47
2019-04-25T07:10:05.700Z,25.20
2019-04-25T07:14:11.416Z,23.18
2019-04-25T07:18:17.041Z,25.85
2019-04-25T07:22:23.916Z,21.68
2019-04-25T07:26:55.238Z,16.65
2019-04-25T07:31:15.589Z,32.53
2019-04-25T07:35:21.220Z,21.23
2019-04-25T07:39:27.498Z,35.52
2019-04-25T07:43:34.117Z,16.00
2019-04-25T07:47:40.953Z,25.37
2019-04-25T07:51:46.674Z,25.77
2019-04-25T07:55:52.331Z,21.82
2019-04-25T07:59:57.976Z,22.45
2019-04-25T08:04:04.611Z,18.10
2019-04-25T08:08:11.254Z,18.15
2019-04-25T08:12:17.007Z,18.10
2019-04-25T08:16:24.412Z,27.48
2019-04-25T08:20:30.804Z,26.82
2019-04-25T08:24:37.290Z,20.27
2019-04-25T08:28:54.053Z,26.52
2019-04-25T08:32:50.272Z,27.15
2019-04-25T08:36:56.975Z,24.12
2019-04-25T08:41:04.056Z,29.80
2019-04-25T08:45:09.767Z,13.70
2019-04-25T08:49:34.903Z,12.68
2019-04-25T08:53:48.473Z,23.05
2019-04-25T08:58:06.040Z,26.27
2019-04-25T09:02:29.096Z,28.25
2019-04-25T09:06:36.489Z,27.98
2019-04-25T09:10:43.711Z,29.12
2019-04-25T09:14:50.099Z,20.43
2019-04-25T09:18:55.983Z,26.10
2019-04-25T09:23:01.581Z,11.28
2019-04-25T09:27:07.231Z,21.95
2019-04-25T09:31:13.982Z,17.30
2019-04-25T09:35:20.218Z,21.35
2019-04-25T09:39:33.800Z,12.53
2019-04-25T09:43:40.342Z,16.40
2019-04-25T09:47:47.807Z,10.05
2019-04-25T09:52:03.381Z,11.68
2019-04-25T09:56:19.577Z,11.20
2019-04-25T10:00:47.661Z,12.35
2019-04-25T10:04:54.755Z,14.18
2019-04-25T10:09:00.799Z,6.05
2019-04-25T10:13:09.199Z,9.68
2019-04-25T10:17:14.807Z,9.08
2019-04-25T10:21:20.898Z,5.58
2019-04-25T10:25:26.502Z,8.28
2019-04-25T10:29:41.613Z,11.35
2019-04-25T10:33:39.752Z,6.92
2019-04-25T10:37:46.545Z,10.35
2019-04-25T10:41:53.938Z,10.48
2019-04-25T10:45:59.545Z,6.03
2019-04-25T10:50:05.620Z,7.65
2019-04-25T10:54:11.270Z,8.70
2019-04-25T10:58:16.967Z,10.88
2019-04-25T11:02:23.610Z,7.78
2019-04-25T11:06:29.885Z,8.35
2019-04-25T11:10:35.510Z,8.55
2019-04-25T11:14:42.176Z,5.90
2019-04-25T11:18:47.880Z,16.00
2019-04-25T11:22:53.624Z,6.70
2019-04-25T11:26:59.205Z,6.67
2019-04-25T11:31:06.727Z,10.30
2019-04-25T11:35:13.961Z,8.70
2019-04-25T11:39:41.802Z,7.95
2019-04-25T11:43:48.923Z,7.35
2019-04-25T11:47:55.315Z,11.45
2019-04-25T11:52:03.106Z,8.78
2019-04-25T11:56:09.351Z,10.43
2019-04-25T12:00:22.190Z,6.67
2019-04-25T12:04:24.345Z,7.35
2019-04-25T12:08:30.042Z,8.98
2019-04-25T12:12:37.158Z,6.45
2019-04-25T12:16:46.134Z,11.28
2019-04-25T12:20:51.011Z,12.80
2019-04-25T12:24:56.609Z,7.78
2019-04-25T12:29:04.249Z,8.23
2019-04-25T12:33:19.192Z,9.25
2019-04-25T12:37:16.800Z,4.83
2019-04-25T12:41:22.421Z,8.75
2019-04-25T12:45:46.070Z,7.20
2019-04-25T12:49:54.363Z,5.67
2019-04-25T12:53:59.849Z,7.00
2019-04-25T12:58:05.909Z,8.88
2019-04-25T13:02:12.988Z,4.25
2019-04-25T13:06:18.950Z,5.72
2019-04-25T13:10:24.643Z,8.13
2019-04-25T13:14:30.253Z,8.68
2019-04-25T13:18:35.876Z,7.22
2019-04-25T13:22:42.942Z,7.70
2019-04-25T13:26:58.577Z,10.95
2019-04-25T13:31:23.380Z,5.58
2019-04-25T13:35:34.643Z,10.58
2019-04-25T13:39:40.338Z,10.88
2019-04-25T13:43:46.135Z,5.58
2019-04-25T13:47:51.763Z,7.28
2019-04-25T13:51:57.386Z,12.85
2019-04-25T13:56:04.868Z,10.00
2019-04-25T14:00:10.761Z,12.15
2019-04-25T14:04:16.717Z,8.10
2019-04-25T14:08:24.420Z,8.53
2019-04-25T14:12:30.319Z,11.50
2019-04-25T14:17:06.730Z,7.15
2019-04-25T14:25:28.272Z,6.97
2019-04-25T14:29:35.705Z,6.53
2019-04-25T14:33:41.291Z,7.70
2019-04-25T14:37:47.027Z,11.73
2019-04-25T14:41:53.021Z,7.25
2019-04-25T14:45:59.434Z,7.53
2019-04-25T14:50:05.443Z,7.03
2019-04-25T14:54:19.187Z,6.97
2019-04-25T14:58:26.140Z,8.00
2019-04-25T15:02:34.194Z,5.25
2019-04-25T15:06:40.055Z,15.30
2019-04-25T15:10:48.319Z,5.33
2019-04-25T15:14:53.454Z,6.65
2019-04-25T15:19:00.298Z,5.97
2019-04-25T15:23:06.005Z,7.15
2019-04-25T15:27:11.758Z,5.37
2019-04-25T15:31:18.552Z,7.30
2019-04-25T15:35:27.993Z,8.05
2019-04-25T15:40:01.488Z,19.62
2019-04-25T15:44:21.244Z,17.98
2019-04-25T15:48:27.596Z,9.28
2019-04-25T15:52:34.349Z,7.50
2019-04-25T15:56:41.529Z,10.68
2019-04-25T16:00:56.444Z,6.75
2019-04-25T16:05:02.050Z,10.78
2019-04-25T16:09:10.421Z,4.72
2019-04-25T16:13:17.544Z,6.20
2019-04-25T16:17:23.266Z,7.17
2019-04-25T16:21:29.306Z,4.58
2019-04-25T16:25:35.504Z,6.45
2019-04-25T16:29:41.125Z,8.55
2019-04-25T16:33:48.357Z,8.43
2019-04-25T16:37:53.974Z,6.28
2019-04-25T16:41:59.645Z,4.08
2019-04-25T16:46:05.359Z,4.50
2019-04-25T16:50:11.402Z,7.28
2019-04-25T16:54:17.079Z,7.22
2019-04-25T16:58:23.753Z,7.70
2019-04-25T17:02:37.469Z,6.00
2019-04-25T17:06:41.052Z,11.25
2019-04-25T17:10:46.727Z,7.47
2019-04-25T17:15:09.918Z,6.60
2019-04-25T17:19:23.336Z,6.97
2019-04-25T17:23:30.082Z,7.03
2019-04-25T17:27:39.135Z,7.53
2019-04-25T17:31:52.676Z,9.83
2019-04-25T17:36:12.666Z,7.72
2019-04-25T17:40:21.234Z,6.50
2019-04-25T17:44:26.913Z,6.17
2019-04-25T17:48:32.927Z,7.60
2019-04-25T17:52:38.753Z,7.08
2019-04-25T17:56:44.755Z,9.53
2019-04-25T18:00:50.652Z,6.33
2019-04-25T18:04:56.293Z,6.28
2019-04-25T18:09:02.213Z,8.98
2019-04-25T18:13:09.724Z,4.90
2019-04-25T18:17:16.062Z,3.60
2019-04-25T18:21:24.166Z,8.30
2019-04-25T18:25:48.706Z,6.20
2019-04-25T18:29:55.267Z,6.12
2019-04-25T18:34:05.012Z,4.72
2019-04-25T18:38:29.810Z,4.60
2019-04-25T18:43:03.058Z,5.75
2019-04-25T18:47:08.766Z,8.80
2019-04-25T18:51:14.811Z,9.55
2019-04-25T18:55:26.826Z,12.78
2019-04-25T18:59:48.194Z,9.30
2019-04-25T19:04:05.037Z,7.72
2019-04-25T19:08:10.910Z,10.20
2019-04-25T19:12:16.755Z,6.12
2019-04-25T19:16:22.587Z,8.28
2019-04-25T19:20:29.414Z,6.72
2019-04-25T19:24:35.393Z,6.08
2019-04-25T19:28:41.142Z,7.53
2019-04-25T19:32:49.044Z,7.65
2019-04-25T19:36:54.837Z,7.95
2019-04-25T19:41:18.565Z,6.97
2019-04-25T19:45:24.403Z,6.53
2019-04-25T19:49:30.267Z,7.92
2019-04-25T19:53:41.769Z,6.42
2019-04-25T19:57:48.238Z,6.28
2019-04-25T20:01:55.635Z,9.00
2019-04-25T20:06:23.608Z,7.30
2019-04-25T20:10:53.453Z,5.53
2019-04-25T20:14:59.381Z,6.80
2019-04-25T20:19:09.343Z,8.18
2019-04-25T20:23:14.009Z,6.67
2019-04-25T20:27:20.206Z,6.95
2019-04-25T20:31:26.036Z,5.80
2019-04-25T20:35:31.809Z,6.12
2019-04-25T20:39:37.601Z,7.47
2019-04-25T20:43:43.253Z,6.42
2019-04-25T20:47:49.988Z,5.80
2019-04-25T20:51:56.674Z,11.60
2019-04-25T20:56:02.502Z,6.75
2019-04-25T21:00:08.788Z,16.42
2019-04-25T21:04:32.647Z,13.43
2019-04-25T21:08:38.331Z,12.37
2019-04-25T21:12:44.071Z,6.78
2019-04-25T21:16:57.403Z,7.35
2019-04-25T21:21:04.228Z,14.65
2019-04-25T21:25:09.925Z,17.05
2019-04-25T21:29:15.556Z,13.08
2019-04-25T21:33:21.612Z,11.28
2019-04-25T21:37:27.624Z,11.20
2019-04-25T21:41:53.411Z,12.60
2019-04-25T21:46:00.577Z,17.60
2019-04-25T21:50:07.942Z,9.80
2019-04-25T21:54:14.468Z,13.68
2019-04-25T21:58:20.508Z,7.92
2019-04-25T22:02:26.890Z,7.08
2019-04-25T22:06:33.116Z,8.13
2019-04-25T22:10:38.772Z,14.58
2019-04-25T22:14:44.401Z,14.98
2019-04-25T22:18:50.078Z,8.88
2019-04-25T22:22:56.179Z,11.90
2019-04-25T22:27:05.439Z,6.15
2019-04-25T22:31:15.500Z,6.53
2019-04-25T22:39:44.965Z,7.58
2019-04-25T22:43:54.493Z,6.15
2019-04-25T22:48:00.540Z,6.12
2019-04-25T22:52:09.135Z,10.68
2019-04-25T22:56:14.817Z,12.55
2019-04-25T23:00:28.524Z,7.83
2019-04-25T23:05:12.097Z,6.35
2019-04-25T23:09:13.001Z,7.15
2019-04-25T23:13:19.794Z,7.45
2019-04-25T23:17:25.816Z,7.40
2019-04-25T23:21:31.567Z,7.83
2019-04-25T23:26:03.571Z,8.40
2019-04-25T23:30:12.238Z,7.22
2019-04-25T23:34:18.188Z,5.40
2019-04-25T23:38:23.878Z,6.80
2019-04-25T23:42:29.494Z,5.97
2019-04-25T23:46:35.515Z,6.28
2019-04-25T23:50:41.168Z,5.90
2019-04-25T23:54:47.431Z,6.33
2019-04-25T23:58:53.410Z,6.60
